Time;durP1;ratioP1;P1;durP2;ratioP2;P2;SDS_P1;SDS_P2;PMS_P1;PMS_P2;Temp;Humidity;BMP_temperature;BMP_pressure;BME280_temperature;BME280_humidity;BME280_pressure;Samples;Min_cycle;Max_cycle;Signal;HPM_P1;HPM_P2
2022/11/08 00:03:51;;;;;;;1.77;0.60;;;23.90;58.80;;;;;;4037607;29;20076;-53
2022/11/08 00:14:15;;;;;;;1.35;0.47;;;24.20;58.40;;;;;;4033575;29;20041;-56
2022/11/08 00:16:38;;;;;;;0.35;0.35;;;24.20;58.30;;;;;;4045614;29;20045;-54
2022/11/08 00:19:00;;;;;;;1.60;0.75;;;24.30;58.20;;;;;;4046165;29;20124;-56
2022/11/08 00:21:23;;;;;;;1.00;0.70;;;24.30;58.10;;;;;;4036927;29;20045;-55
2022/11/08 00:23:46;;;;;;;0.80;0.47;;;24.40;57.90;;;;;;4039446;29;20048;-56
2022/11/08 00:26:08;;;;;;;3.00;0.50;;;24.40;57.80;;;;;;4034749;29;20066;-52
2022/11/08 00:28:31;;;;;;;1.38;0.50;;;24.50;57.80;;;;;;4039962;29;20094;-54
2022/11/08 00:30:53;;;;;;;0.68;0.30;;;24.50;57.70;;;;;;4042505;29;20059;-53
2022/11/08 00:33:16;;;;;;;0.88;0.38;;;24.60;57.70;;;;;;4044367;29;20040;-57
2022/11/08 00:35:39;;;;;;;1.83;0.47;;;24.60;57.80;;;;;;4049531;29;20048;-53
2022/11/08 00:38:01;;;;;;;0.47;0.47;;;24.60;57.70;;;;;;4048045;29;20040;-54
2022/11/08 00:40:24;;;;;;;0.50;0.50;;;24.60;57.60;;;;;;4039304;29;20037;-55
2022/11/08 00:42:46;;;;;;;3.05;0.40;;;24.60;57.60;;;;;;4039273;29;20044;-52
2022/11/08 00:45:09;;;;;;;1.58;0.30;;;24.60;57.60;;;;;;4038648;29;20037;-54
2022/11/08 00:47:32;;;;;;;1.02;0.50;;;24.70;57.50;;;;;;4040028;29;20070;-52
2022/11/08 00:49:55;;;;;;;0.20;0.20;;;24.70;57.50;;;;;;4040525;29;20055;-50
2022/11/08 00:52:17;;;;;;;1.33;0.30;;;24.80;57.40;;;;;;4040615;29;20045;-53
2022/11/08 00:54:40;;;;;;;1.60;0.40;;;24.80;57.30;;;;;;4036046;29;20049;-46
2022/11/08 00:57:02;;;;;;;1.65;0.40;;;24.80;57.30;;;;;;4036331;29;20488;-52
2022/11/08 00:59:25;;;;;;;0.73;0.30;;;24.80;57.30;;;;;;4038631;29;20037;-51
2022/11/08 01:01:47;;;;;;;0.65;0.30;;;24.80;57.20;;;;;;4035683;29;20033;-53
2022/11/08 01:04:11;;;;;;;0.52;0.43;;;24.80;57.30;;;;;;4037612;29;20048;-48
2022/11/08 01:06:34;;;;;;;4.18;0.60;;;24.80;57.40;;;;;;4036708;29;20041;-54
2022/11/08 01:08:57;;;;;;;3.75;0.50;;;24.80;57.30;;;;;;4038363;29;20068;-52
2022/11/08 01:11:22;;;;;;;5.77;0.57;;;24.90;57.20;;;;;;4036932;29;20673;-56
2022/11/08 01:13:45;;;;;;;0.38;0.38;;;24.90;57.30;;;;;;4038354;29;20288;-56
2022/11/08 01:16:10;;;;;;;1.13;0.30;;;24.90;57.00;;;;;;4032918;29;20094;-48
2022/11/08 01:18:33;;;;;;;1.25;0.40;;;24.90;57.00;;;;;;4037450;29;20127;-48
2022/11/08 01:20:56;;;;;;;0.73;0.30;;;25.00;56.90;;;;;;4037101;29;20044;-57
2022/11/08 01:23:19;;;;;;;1.30;0.55;;;25.00;56.60;;;;;;4039263;29;20885;-55
2022/11/08 01:25:44;;;;;;;1.70;0.43;;;25.00;55.80;;;;;;4036461;29;20119;-56
2022/11/08 01:28:07;;;;;;;3.25;0.60;;;25.00;55.20;;;;;;4052795;29;20451;-59
2022/11/08 01:30:29;;;;;;;1.13;0.40;;;24.90;54.90;;;;;;4033941;29;20045;-58
2022/11/08 01:32:52;;;;;;;3.97;0.82;;;24.80;54.90;;;;;;4035650;29;20088;-57
2022/11/08 01:35:14;;;;;;;6.53;1.00;;;24.80;55.60;;;;;;4033381;29;20139;-55
2022/11/08 01:37:37;;;;;;;3.35;0.65;;;24.80;55.90;;;;;;4032585;29;20044;-54
2022/11/08 01:39:59;;;;;;;2.85;0.90;;;24.80;55.70;;;;;;4032894;29;20158;-49
2022/11/08 01:42:32;;;;;;;3.75;1.15;;;24.80;55.50;;;;;;4032080;29;20048;-49
2022/11/08 01:44:59;;;;;;;4.25;0.55;;;24.80;55.60;;;;;;4037481;29;20068;-50
2022/11/08 01:47:22;;;;;;;1.55;0.93;;;24.80;55.50;;;;;;4036325;29;20123;-48
2022/11/08 01:49:46;;;;;;;1.67;0.60;;;24.80;55.40;;;;;;4036635;29;20376;-50
2022/11/08 01:52:33;;;;;;;1.10;0.60;;;24.80;55.40;;;;;;4036602;29;20096;-49
2022/11/08 01:55:08;;;;;;;1.20;0.30;;;24.80;55.40;;;;;;4037475;29;20040;-52
2022/11/08 01:57:56;;;;;;;1.40;0.52;;;24.80;55.40;;;;;;4032560;29;20045;-51
2022/11/08 02:00:19;;;;;;;1.13;0.30;;;24.90;55.40;;;;;;4037917;29;20420;-52
2022/11/08 02:02:43;;;;;;;0.73;0.40;;;24.90;55.40;;;;;;4039014;29;20134;-51
2022/11/08 02:05:28;;;;;;;0.98;0.40;;;24.90;55.40;;;;;;4032947;29;20040;-52
2022/11/08 02:08:24;;;;;;;1.85;0.45;;;24.90;55.40;;;;;;4034858;29;20483;-52
2022/11/08 02:10:49;;;;;;;0.30;0.30;;;24.90;55.40;;;;;;4030876;29;20048;-49
2022/11/08 02:13:15;;;;;;;0.57;0.30;;;24.90;55.40;;;;;;4037188;29;20075;-53
2022/11/08 02:15:38;;;;;;;0.88;0.40;;;24.80;55.30;;;;;;4037149;29;20045;-48
2022/11/08 02:18:01;;;;;;;1.20;0.40;;;24.90;55.40;;;;;;4037414;29;20052;-47
2022/11/08 02:20:23;;;;;;;0.30;0.30;;;24.90;55.40;;;;;;4036733;29;20040;-48
2022/11/08 02:22:58;;;;;;;0.80;0.40;;;24.90;55.20;;;;;;4036672;29;20200;-47
2022/11/08 02:25:21;;;;;;;1.20;0.40;;;25.00;55.20;;;;;;4035340;29;20492;-48
2022/11/08 02:27:43;;;;;;;0.20;0.20;;;25.00;55.10;;;;;;4040176;29;20070;-51
2022/11/08 02:30:06;;;;;;;0.77;0.47;;;25.00;55.10;;;;;;4039192;29;20052;-48
2022/11/08 02:32:41;;;;;;;1.13;0.30;;;25.00;55.10;;;;;;4036539;29;20033;-48
2022/11/08 02:35:06;;;;;;;1.20;0.35;;;25.00;55.00;;;;;;4041423;29;20044;-47
2022/11/08 02:37:28;;;;;;;0.50;0.30;;;25.10;55.00;;;;;;4039496;29;20070;-47
2022/11/08 02:39:51;;;;;;;0.63;0.25;;;25.10;54.90;;;;;;4036070;29;20047;-56
2022/11/08 02:42:15;;;;;;;2.35;0.30;;;25.10;54.90;;;;;;4038976;29;20076;-51
2022/11/08 02:44:38;;;;;;;1.25;0.70;;;25.10;54.90;;;;;;4035083;29;20096;-56
2022/11/08 02:47:00;;;;;;;2.33;0.80;;;25.10;54.70;;;;;;4038384;29;20524;-55
2022/11/08 02:49:23;;;;;;;3.13;0.73;;;25.10;55.30;;;;;;4033169;29;20044;-50
2022/11/08 02:51:46;;;;;;;2.40;0.43;;;25.10;56.10;;;;;;4035516;29;20105;-50
2022/11/08 02:54:08;;;;;;;1.20;0.50;;;25.20;56.40;;;;;;4036835;29;20147;-48
2022/11/08 02:56:31;;;;;;;1.75;0.80;;;25.20;56.60;;;;;;4037807;29;20322;-53
2022/11/08 02:58:54;;;;;;;2.33;0.60;;;25.30;56.70;;;;;;4047297;29;20055;-54
2022/11/08 03:01:16;;;;;;;1.75;0.40;;;25.20;56.90;;;;;;4040597;29;20047;-47
2022/11/08 03:03:39;;;;;;;3.33;0.70;;;25.20;57.30;;;;;;4042919;29;20055;-51
2022/11/08 03:06:01;;;;;;;1.83;0.40;;;25.30;57.60;;;;;;4041897;29;20245;-56
2022/11/08 03:08:24;;;;;;;2.05;0.60;;;25.30;57.80;;;;;;4037226;29;20052;-54
2022/11/08 03:10:46;;;;;;;1.85;0.70;;;25.30;57.90;;;;;;4035748;29;20694;-53
2022/11/08 03:13:09;;;;;;;1.70;0.57;;;25.40;58.10;;;;;;4040115;29;20038;-50
2022/11/08 03:15:32;;;;;;;2.85;0.60;;;25.40;58.00;;;;;;4039136;29;20118;-57
2022/11/08 03:18:01;;;;;;;1.35;0.50;;;25.50;58.00;;;;;;4043119;29;20036;-59
2022/11/08 03:20:24;;;;;;;3.50;0.50;;;25.50;58.00;;;;;;4042507;29;20135;-52
2022/11/08 03:22:47;;;;;;;1.67;0.40;;;25.60;57.60;;;;;;4042529;29;20408;-57
2022/11/08 03:25:10;;;;;;;1.35;0.50;;;25.60;57.70;;;;;;4040610;29;20040;-54
2022/11/08 03:27:32;;;;;;;0.40;0.40;;;25.70;57.60;;;;;;4039495;29;20051;-49
2022/11/08 03:29:55;;;;;;;0.73;0.40;;;25.70;57.40;;;;;;4032888;29;20446;-55
2022/11/08 03:32:17;;;;;;;0.63;0.30;;;25.80;57.40;;;;;;4039138;29;20539;-55
2022/11/08 03:34:40;;;;;;;0.70;0.30;;;25.80;57.90;;;;;;4035518;29;20584;-53
2022/11/08 03:37:05;;;;;;;1.17;0.35;;;25.80;57.20;;;;;;4036230;29;20088;-55
2022/11/08 03:39:28;;;;;;;1.40;0.20;;;25.80;57.10;;;;;;4033435;29;20453;-53
2022/11/08 03:41:50;;;;;;;2.92;0.50;;;25.90;57.30;;;;;;4046991;29;20045;-58
2022/11/08 03:44:13;;;;;;;0.43;0.20;;;25.90;57.10;;;;;;4037010;29;20131;-55
2022/11/08 03:46:35;;;;;;;1.70;0.40;;;26.00;56.90;;;;;;4033775;29;20140;-52
2022/11/08 03:48:58;;;;;;;2.80;0.40;;;26.10;56.80;;;;;;4034222;29;20037;-48
2022/11/08 03:51:20;;;;;;;1.08;0.32;;;26.20;56.60;;;;;;4031222;29;20420;-48
2022/11/08 03:53:43;;;;;;;2.35;0.22;;;26.20;56.60;;;;;;4037901;29;20032;-56
2022/11/08 03:56:06;;;;;;;0.40;0.25;;;26.20;56.40;;;;;;4037290;29;20471;-59
2022/11/08 03:58:28;;;;;;;0.82;0.50;;;26.30;56.30;;;;;;4034615;29;20048;-54
2022/11/08 04:00:51;;;;;;;0.95;0.30;;;26.30;56.20;;;;;;4038659;29;20480;-50
2022/11/08 04:03:14;;;;;;;1.95;0.32;;;26.40;56.50;;;;;;4040147;29;20123;-55
2022/11/08 04:05:36;;;;;;;0.52;0.30;;;26.40;56.30;;;;;;4034700;29;20127;-58
2022/11/08 04:08:00;;;;;;;0.80;0.28;;;26.50;56.20;;;;;;4037650;29;20036;-54
2022/11/08 04:10:23;;;;;;;3.53;0.70;;;26.50;56.20;;;;;;4049948;29;20533;-50
2022/11/08 04:15:28;;;;;;;3.28;0.35;;;26.50;56.30;;;;;;4041809;29;20044;-57
2022/11/08 04:23:14;;;;;;;1.25;0.52;;;26.80;55.80;;;;;;4038516;29;20166;-52
2022/11/08 04:25:37;;;;;;;2.72;0.50;;;26.80;55.70;;;;;;4041833;29;20043;-55
2022/11/08 04:27:59;;;;;;;0.63;0.30;;;26.80;55.60;;;;;;4038712;29;20155;-54
2022/11/08 04:30:22;;;;;;;1.27;0.38;;;26.90;55.50;;;;;;4039494;29;20104;-51
2022/11/08 04:32:44;;;;;;;1.05;0.60;;;27.00;55.40;;;;;;4039177;29;20036;-51
2022/11/08 04:35:07;;;;;;;6.25;0.43;;;27.10;55.40;;;;;;4035453;29;20076;-51
2022/11/08 04:37:29;;;;;;;1.00;0.20;;;27.10;55.20;;;;;;4039569;29;20048;-53
2022/11/08 04:39:52;;;;;;;2.67;0.40;;;27.20;55.10;;;;;;4038300;29;20526;-51
2022/11/08 04:42:14;;;;;;;1.30;0.38;;;27.30;55.00;;;;;;4037475;29;20059;-55
2022/11/08 04:44:37;;;;;;;2.25;0.60;;;27.40;55.10;;;;;;4035813;29;20100;-50
2022/11/08 04:53:37;;;;;;;0.90;0.30;;;27.60;54.90;;;;;;4049082;29;21296;-52
2022/11/08 04:56:01;;;;;;;1.35;0.30;;;27.60;54.80;;;;;;4033005;29;20065;-54
2022/11/08 04:58:24;;;;;;;0.70;0.40;;;27.70;54.70;;;;;;4036173;29;20464;-53
2022/11/08 05:00:46;;;;;;;1.10;0.50;;;27.80;54.40;;;;;;4032243;29;20412;-56
2022/11/08 05:03:09;;;;;;;1.15;0.28;;;27.90;54.30;;;;;;4040978;29;20710;-54
2022/11/08 05:05:31;;;;;;;0.70;0.40;;;27.90;54.20;;;;;;4039871;29;20055;-56
2022/11/08 05:07:54;;;;;;;3.25;0.40;;;27.90;54.30;;;;;;4038357;29;20091;-58
2022/11/08 05:10:17;;;;;;;1.65;0.28;;;28.00;54.30;;;;;;4037307;29;20586;-53
2022/11/08 05:12:39;;;;;;;1.90;0.30;;;28.00;54.20;;;;;;4041403;29;20507;-55
2022/11/08 05:15:02;;;;;;;1.08;0.65;;;28.00;54.20;;;;;;4026568;29;20100;-53
2022/11/08 05:17:24;;;;;;;0.73;0.38;;;28.10;54.20;;;;;;4024260;29;20321;-58
2022/11/08 05:25:08;;;;;;;1.33;0.30;;;28.30;54.10;;;;;;4037016;29;20461;-54
2022/11/08 05:27:30;;;;;;;0.87;0.43;;;28.30;53.80;;;;;;4033820;29;20120;-55
2022/11/08 05:29:53;;;;;;;0.30;0.30;;;28.40;53.70;;;;;;4031026;29;20366;-55
2022/11/08 05:32:15;;;;;;;0.50;0.20;;;28.50;53.60;;;;;;4033236;29;20054;-56
2022/11/08 05:34:38;;;;;;;0.70;0.32;;;28.60;53.60;;;;;;4034672;29;20497;-57
2022/11/08 05:37:01;;;;;;;3.00;0.38;;;28.70;53.50;;;;;;4036293;29;20485;-50
2022/11/08 05:39:23;;;;;;;0.70;0.20;;;28.80;53.50;;;;;;4036856;29;20513;-56
2022/11/08 05:41:46;;;;;;;0.88;0.13;;;28.90;53.20;;;;;;4041678;29;20048;-56
2022/11/08 05:44:09;;;;;;;1.50;0.20;;;29.00;53.00;;;;;;4033783;29;20064;-54
2022/11/08 05:46:31;;;;;;;;;;;29.10;53.00;;;;;;4037622;29;20048;-54
2022/11/08 05:48:54;;;;;;;1.70;0.40;;;29.20;53.60;;;;;;4034073;29;19962;-56
2022/11/08 05:51:18;;;;;;;1.45;0.28;;;29.20;53.20;;;;;;4036661;29;20064;-53
2022/11/08 05:53:41;;;;;;;1.95;0.32;;;29.10;53.30;;;;;;4032467;29;20059;-55
2022/11/08 05:56:04;;;;;;;6.38;0.85;;;29.10;53.40;;;;;;4036200;29;20088;-54
2022/11/08 05:58:28;;;;;;;7.43;0.57;;;29.10;53.30;;;;;;4036189;29;20036;-52
2022/11/08 06:00:50;;;;;;;1.98;0.43;;;29.10;52.90;;;;;;4035391;29;20066;-52
2022/11/08 06:03:13;;;;;;;1.83;0.40;;;29.10;52.60;;;;;;4033948;29;20048;-53
2022/11/08 06:05:35;;;;;;;0.77;0.40;;;29.20;52.50;;;;;;4037403;29;20044;-53
2022/11/08 06:07:58;;;;;;;2.20;0.38;;;29.20;52.30;;;;;;4034943;29;20105;-48
2022/11/08 06:10:21;;;;;;;1.13;0.30;;;29.30;52.10;;;;;;4035615;29;20044;-48
2022/11/08 06:12:43;;;;;;;1.02;0.20;;;29.30;51.80;;;;;;4037749;29;20124;-55
2022/11/08 06:15:08;;;;;;;0.20;0.20;;;29.30;51.80;;;;;;4037664;29;20559;-51
2022/11/08 06:17:30;;;;;;;0.77;0.25;;;29.30;51.70;;;;;;4050796;29;20139;-50
2022/11/08 06:19:53;;;;;;;1.05;0.25;;;29.30;51.70;;;;;;4034581;29;20044;-50
2022/11/08 06:22:15;;;;;;;0.93;0.32;;;29.30;51.50;;;;;;4039472;29;20084;-54
2022/11/08 06:24:38;;;;;;;1.15;0.30;;;29.40;51.50;;;;;;4031532;29;20379;-51
2022/11/08 06:27:00;;;;;;;0.65;0.35;;;29.40;51.30;;;;;;4037428;29;20266;-54
2022/11/08 06:29:23;;;;;;;0.32;0.22;;;29.40;51.20;;;;;;4032829;29;20048;-53
2022/11/08 06:31:45;;;;;;;0.15;0.10;;;29.40;51.10;;;;;;4033838;29;20063;-52
2022/11/08 06:34:08;;;;;;;0.75;0.20;;;29.40;51.10;;;;;;4039189;29;20068;-55
2022/11/08 06:36:30;;;;;;;0.60;0.23;;;29.30;51.20;;;;;;4026610;29;20168;-54
2022/11/08 06:38:56;;;;;;;0.77;0.40;;;29.20;51.20;;;;;;4032091;29;20116;-51
2022/11/08 06:41:19;;;;;;;0.13;0.13;;;29.20;51.30;;;;;;4040699;29;20774;-54
2022/11/08 06:43:42;;;;;;;0.32;0.30;;;29.30;51.30;;;;;;4034416;29;20044;-48
2022/11/08 06:46:05;;;;;;;0.40;0.20;;;29.20;51.30;;;;;;4033865;29;20049;-57
2022/11/08 06:48:27;;;;;;;0.20;0.20;;;29.10;51.30;;;;;;4035830;29;20036;-48
2022/11/08 06:50:50;;;;;;;1.08;0.40;;;29.10;51.30;;;;;;4035630;29;20484;-50
2022/11/08 06:53:13;;;;;;;0.30;0.20;;;29.10;51.30;;;;;;4036216;29;20048;-50
2022/11/08 06:55:36;;;;;;;0.40;0.20;;;29.10;51.20;;;;;;4037494;29;20051;-49
2022/11/08 06:57:59;;;;;;;0.80;0.30;;;29.00;51.10;;;;;;4039135;29;20068;-54
2022/11/08 07:00:22;;;;;;;2.20;0.40;;;29.00;51.10;;;;;;4016891;29;20419;-54
2022/11/08 07:02:45;;;;;;;0.82;0.40;;;29.00;50.50;;;;;;4032053;29;20037;-53
2022/11/08 07:05:08;;;;;;;1.43;0.67;;;28.90;50.30;;;;;;4029730;29;20490;-54
2022/11/08 07:07:30;;;;;;;0.37;0.30;;;28.80;50.10;;;;;;4037474;29;20040;-55
2022/11/08 07:09:53;;;;;;;0.40;0.40;;;28.80;50.20;;;;;;4035096;29;20064;-50
2022/11/08 07:12:15;;;;;;;1.15;0.50;;;28.70;50.20;;;;;;4039113;29;20051;-53
2022/11/08 07:14:38;;;;;;;0.77;0.43;;;28.60;50.30;;;;;;4035660;29;20099;-54
2022/11/08 07:17:00;;;;;;;1.05;0.50;;;28.50;50.30;;;;;;4034609;29;20470;-52
2022/11/08 07:19:23;;;;;;;1.13;0.35;;;28.50;50.40;;;;;;4036466;29;20480;-54
2022/11/08 07:21:46;;;;;;;0.90;0.30;;;28.40;50.30;;;;;;4038375;29;20488;-54
2022/11/08 07:24:08;;;;;;;1.00;0.40;;;28.30;50.50;;;;;;4041769;29;20096;-57
2022/11/08 07:26:31;;;;;;;0.77;0.40;;;28.30;50.60;;;;;;4038178;29;20049;-55
2022/11/08 07:28:53;;;;;;;0.80;0.35;;;28.20;50.50;;;;;;4032018;29;20080;-49
2022/11/08 07:31:16;;;;;;;0.35;0.30;;;28.20;50.70;;;;;;4037825;29;20421;-55
2022/11/08 07:33:39;;;;;;;1.45;0.50;;;28.10;50.70;;;;;;4033150;29;20866;-56
2022/11/08 07:36:02;;;;;;;1.90;0.45;;;28.00;50.70;;;;;;4037139;29;20051;-55
2022/11/08 07:38:25;;;;;;;0.30;0.25;;;28.00;50.70;;;;;;4035965;29;20040;-56
2022/11/08 07:40:47;;;;;;;2.05;0.60;;;28.00;50.80;;;;;;4042826;29;20083;-56
2022/11/08 07:43:10;;;;;;;0.75;0.30;;;27.90;50.70;;;;;;4035497;29;20088;-55
2022/11/08 07:45:33;;;;;;;1.25;0.35;;;27.90;50.90;;;;;;4033864;29;20050;-57
2022/11/08 07:48:00;;;;;;;0.57;0.30;;;27.90;51.50;;;;;;4028896;29;20036;-57
2022/11/08 07:50:23;;;;;;;1.13;0.60;;;27.80;50.90;;;;;;4036292;29;20064;-57
2022/11/08 07:52:50;;;;;;;1.80;1.20;;;27.80;51.00;;;;;;4032924;29;20051;-55
2022/11/08 07:55:12;;;;;;;2.85;1.92;;;27.70;50.90;;;;;;4035909;29;20139;-56
2022/11/08 07:57:35;;;;;;;4.90;3.72;;;27.70;51.10;;;;;;4043978;29;20402;-56
2022/11/08 07:59:57;;;;;;;10.10;6.93;;;27.70;51.30;;;;;;4035754;29;20045;-54
2022/11/08 08:02:20;;;;;;;12.15;7.72;;;27.60;51.90;;;;;;4038391;29;20056;-56
2022/11/08 08:04:42;;;;;;;12.60;7.47;;;27.60;51.40;;;;;;4034978;29;20051;-56
2022/11/08 08:07:05;;;;;;;8.90;5.85;;;27.60;51.50;;;;;;4038157;29;20196;-59
2022/11/08 08:09:28;;;;;;;8.30;5.37;;;27.60;51.50;;;;;;4035288;29;20398;-57
2022/11/08 08:11:50;;;;;;;8.52;5.05;;;27.50;51.50;;;;;;4039494;29;20493;-56
2022/11/08 08:14:13;;;;;;;8.35;4.85;;;27.50;51.60;;;;;;4042676;29;20550;-57
2022/11/08 08:16:35;;;;;;;10.27;6.47;;;27.50;51.50;;;;;;4043360;29;20519;-57
2022/11/08 08:18:58;;;;;;;9.05;5.63;;;27.40;51.50;;;;;;4038481;29;20127;-54
2022/11/08 08:21:20;;;;;;;7.40;5.40;;;27.40;51.60;;;;;;4041374;29;20041;-57
2022/11/08 08:23:43;;;;;;;7.60;4.72;;;27.40;51.60;;;;;;4035787;29;20188;-57
2022/11/08 08:26:05;;;;;;;7.25;4.40;;;27.30;51.70;;;;;;4033288;29;20505;-54
2022/11/08 08:28:28;;;;;;;5.93;3.85;;;27.30;51.70;;;;;;4033053;29;20137;-57
2022/11/08 08:30:50;;;;;;;7.78;3.95;;;27.30;51.80;;;;;;4035738;29;20056;-58
2022/11/08 08:33:15;;;;;;;6.95;3.28;;;27.20;52.40;;;;;;4050552;29;20095;-57
2022/11/08 08:35:39;;;;;;;6.90;2.97;;;27.20;51.90;;;;;;4029680;29;20049;-58
2022/11/08 08:38:02;;;;;;;8.48;3.47;;;27.20;52.10;;;;;;4037818;29;20045;-50
2022/11/08 08:40:24;;;;;;;;;;;27.10;52.40;;;;;;4038754;29;20738;-54
2022/11/08 08:42:47;;;;;;;8.00;2.53;;;27.10;52.60;;;;;;4035869;29;20355;-54
2022/11/08 08:45:10;;;;;;;5.22;2.28;;;27.10;52.70;;;;;;4034332;29;20053;-55
2022/11/08 08:47:32;;;;;;;5.28;2.33;;;27.10;52.70;;;;;;4037136;29;20087;-53
2022/11/08 08:49:55;;;;;;;5.55;2.45;;;27.10;52.80;;;;;;4027163;29;20417;-51
2022/11/08 08:52:18;;;;;;;3.67;2.00;;;27.00;52.70;;;;;;4043798;29;20040;-53
2022/11/08 08:55:11;;;;;;;4.30;1.90;;;27.00;52.70;;;;;;4040973;29;20033;-54
2022/11/08 08:57:53;;;;;;;4.68;1.77;;;26.90;52.70;;;;;;4056357;29;20039;-56
2022/11/08 09:00:34;;;;;;;4.78;2.40;;;26.90;52.90;;;;;;4044595;29;20124;-51
2022/11/08 09:03:33;;;;;;;3.38;1.63;;;26.90;53.00;;;;;;4052808;29;20040;-52
2022/11/08 09:05:59;;;;;;;2.92;1.58;;;26.90;53.00;;;;;;4035992;29;20040;-49
2022/11/08 09:08:23;;;;;;;2.90;1.65;;;26.80;52.90;;;;;;4035030;29;20029;-50
2022/11/08 09:10:46;;;;;;;3.80;1.45;;;26.80;53.00;;;;;;4034479;29;20431;-49
2022/11/08 09:13:08;;;;;;;3.97;1.67;;;26.80;53.00;;;;;;4038197;29;20504;-54
2022/11/08 09:15:31;;;;;;;4.93;1.70;;;26.70;52.90;;;;;;4038081;29;20160;-51
2022/11/08 09:17:54;;;;;;;4.13;1.43;;;26.80;53.00;;;;;;4039198;29;20404;-49
2022/11/08 09:20:17;;;;;;;3.70;1.50;;;26.70;52.90;;;;;;4037133;29;20885;-55
2022/11/08 09:22:40;;;;;;;3.25;1.30;;;26.70;52.90;;;;;;4033740;29;20051;-53
2022/11/08 09:25:03;;;;;;;2.83;1.40;;;26.70;53.10;;;;;;4034860;29;20044;-55
2022/11/08 09:27:28;;;;;;;3.25;1.42;;;26.70;53.10;;;;;;4034695;29;20048;-54
2022/11/08 09:29:50;;;;;;;2.38;1.17;;;26.60;53.00;;;;;;4035566;29;20132;-54
2022/11/08 09:32:13;;;;;;;2.33;1.20;;;26.60;53.10;;;;;;4039304;29;20066;-56
2022/11/08 09:34:36;;;;;;;3.95;1.27;;;26.60;53.10;;;;;;4034528;29;20072;-56
2022/11/08 09:36:58;;;;;;;2.45;1.10;;;26.60;53.20;;;;;;4037115;29;20044;-56
2022/11/08 09:39:21;;;;;;;2.17;1.00;;;26.50;53.10;;;;;;4037120;29;20044;-53
2022/11/08 09:42:21;;;;;;;2.47;1.20;;;26.50;53.20;;;;;;4035788;29;20127;-53
2022/11/08 09:44:54;;;;;;;3.03;1.55;;;26.50;53.30;;;;;;4033697;29;20178;-53
2022/11/08 09:47:41;;;;;;;2.53;0.95;;;26.50;53.30;;;;;;4030417;29;20037;-56
2022/11/08 09:50:15;;;;;;;2.95;1.25;;;26.40;53.20;;;;;;4038757;29;20045;-55
2022/11/08 09:52:42;;;;;;;2.55;1.15;;;26.40;53.30;;;;;;4034737;29;20634;-51
2022/11/08 09:55:29;;;;;;;1.85;0.90;;;26.40;53.20;;;;;;4032302;29;20080;-52
2022/11/08 09:58:12;;;;;;;2.05;1.05;;;26.40;53.30;;;;;;4030823;29;20036;-53
2022/11/08 10:00:39;;;;;;;2.22;1.00;;;26.30;53.20;;;;;;4031934;29;20036;-53
2022/11/08 10:03:03;;;;;;;1.55;0.77;;;26.30;53.20;;;;;;4039061;29;20044;-55
2022/11/08 10:05:33;;;;;;;2.67;1.17;;;26.30;53.30;;;;;;4030253;29;20156;-53
2022/11/08 10:08:32;;;;;;;2.70;1.30;;;26.30;53.20;;;;;;4034829;29;20042;-54
2022/11/08 10:11:20;;;;;;;2.65;1.20;;;26.30;53.90;;;;;;4037382;29;20059;-54
2022/11/08 10:14:06;;;;;;;2.47;1.08;;;26.20;53.20;;;;;;4037554;29;20428;-56
2022/11/08 10:16:38;;;;;;;2.40;1.20;;;26.20;53.30;;;;;;4036124;29;20041;-54
2022/11/08 10:19:17;;;;;;;1.27;0.82;;;26.20;53.20;;;;;;4036572;29;20593;-53
2022/11/08 10:21:59;;;;;;;1.83;0.93;;;26.20;53.30;;;;;;4035369;29;20044;-54
2022/11/08 10:24:39;;;;;;;2.03;1.20;;;26.20;53.30;;;;;;4035074;29;20779;-54
2022/11/08 10:27:03;;;;;;;2.17;1.17;;;26.10;53.20;;;;;;4040105;29;20429;-52
2022/11/08 10:29:40;;;;;;;1.58;0.60;;;26.10;53.20;;;;;;4037937;29;20375;-51
2022/11/08 10:32:20;;;;;;;3.97;1.02;;;26.10;53.30;;;;;;4037897;29;20056;-59
2022/11/08 10:35:11;;;;;;;2.53;0.90;;;26.10;53.30;;;;;;4034240;29;20050;-57
2022/11/08 10:37:36;;;;;;;1.92;0.75;;;26.10;53.50;;;;;;4031430;29;20508;-53
2022/11/08 10:40:36;;;;;;;2.67;0.90;;;26.10;53.50;;;;;;4033203;29;20048;-55
2022/11/08 10:43:23;;;;;;;4.05;1.52;;;26.00;53.50;;;;;;4031094;29;20036;-58
2022/11/08 10:45:45;;;;;;;2.03;0.95;;;26.00;53.60;;;;;;4037355;29;20351;-56
2022/11/08 10:48:11;;;;;;;2.35;0.88;;;26.00;53.50;;;;;;4040039;29;20051;-55
2022/11/08 10:50:45;;;;;;;3.03;0.63;;;26.00;53.70;;;;;;4033676;29;20482;-55
2022/11/08 10:53:23;;;;;;;1.30;0.80;;;26.00;53.70;;;;;;4038238;29;20132;-57
2022/11/08 10:55:58;;;;;;;2.42;1.10;;;25.90;53.60;;;;;;4037292;29;20072;-57
2022/11/08 10:58:28;;;;;;;3.88;0.82;;;25.90;53.70;;;;;;4039235;29;20758;-52
2022/11/08 11:01:04;;;;;;;2.17;0.70;;;25.90;53.70;;;;;;4036774;29;20134;-58
2022/11/08 11:03:27;;;;;;;5.80;1.33;;;25.90;53.70;;;;;;4036689;29;20119;-56
2022/11/08 11:06:22;;;;;;;2.17;1.00;;;25.90;54.10;;;;;;4038193;29;20385;-57
2022/11/08 11:09:20;;;;;;;2.88;1.00;;;25.90;54.30;;;;;;4036528;29;20521;-50
2022/11/08 11:11:44;;;;;;;3.97;0.88;;;25.90;54.50;;;;;;4035711;29;20053;-47
2022/11/08 11:14:18;;;;;;;3.58;0.90;;;25.90;54.70;;;;;;4033507;29;20561;-50
2022/11/08 11:17:10;;;;;;;1.67;0.57;;;25.90;54.80;;;;;;4036994;29;20036;-48
2022/11/08 11:19:33;;;;;;;2.67;0.60;;;25.90;54.90;;;;;;4037859;29;20096;-54
2022/11/08 11:22:07;;;;;;;1.15;0.60;;;25.90;55.00;;;;;;4032976;29;20196;-51
2022/11/08 11:24:30;;;;;;;2.35;0.70;;;25.90;55.10;;;;;;4028990;29;20048;-55
2022/11/08 11:27:29;;;;;;;1.30;0.60;;;25.90;55.20;;;;;;4030693;29;20040;-57
2022/11/08 11:30:23;;;;;;;3.15;0.60;;;25.90;55.20;;;;;;4036569;29;20385;-56
2022/11/08 11:33:05;;;;;;;0.82;0.40;;;25.90;55.20;;;;;;4033266;29;20052;-50
2022/11/08 11:35:57;;;;;;;1.67;0.65;;;25.90;55.20;;;;;;4030889;29;20073;-59
2022/11/08 11:38:47;;;;;;;3.50;0.80;;;25.90;55.30;;;;;;4036026;29;20459;-58
2022/11/08 11:41:18;;;;;;;0.65;0.40;;;25.90;55.40;;;;;;4038029;29;20140;-57
2022/11/08 11:43:57;;;;;;;0.98;0.32;;;25.90;55.40;;;;;;4035457;29;20037;-54
2022/11/08 11:46:42;;;;;;;7.45;0.80;;;25.90;55.50;;;;;;4037191;29;20041;-57
2022/11/08 11:49:16;;;;;;;7.22;1.33;;;25.90;55.70;;;;;;4034665;29;20071;-57
2022/11/08 11:51:38;;;;;;;4.65;1.30;;;26.00;56.00;;;;;;4036157;29;20447;-58
2022/11/08 11:54:04;;;;;;;23.35;1.63;;;26.00;56.00;;;;;;4032462;29;20048;-54
2022/11/08 11:56:32;;;;;;;4.13;1.08;;;26.00;55.90;;;;;;4034309;29;20044;-56
2022/11/08 11:59:07;;;;;;;3.97;0.80;;;26.00;55.90;;;;;;4029458;29;20448;-52
2022/11/08 12:01:41;;;;;;;1.60;0.70;;;26.00;55.80;;;;;;4030230;29;20048;-58
2022/11/08 12:04:41;;;;;;;2.95;0.57;;;26.00;55.80;;;;;;4025318;29;20060;-57
2022/11/08 12:07:26;;;;;;;1.67;0.73;;;26.00;55.80;;;;;;4031273;29;20093;-50
2022/11/08 12:10:15;;;;;;;2.65;0.57;;;26.00;55.80;;;;;;4033029;29;20494;-49
2022/11/08 12:12:38;;;;;;;4.00;0.60;;;26.00;55.80;;;;;;4028042;29;20416;-58
2022/11/08 12:15:11;;;;;;;1.10;0.50;;;26.00;55.90;;;;;;4031191;29;20051;-58
2022/11/08 12:17:46;;;;;;;2.53;0.50;;;26.00;55.90;;;;;;4030186;29;20025;-59
2022/11/08 12:20:21;;;;;;;1.73;0.50;;;26.00;56.00;;;;;;4032771;29;20056;-58
2022/11/08 12:22:46;;;;;;;1.42;0.30;;;26.00;55.90;;;;;;4028996;29;20427;-57
2022/11/08 12:25:32;;;;;;;1.10;0.45;;;26.10;56.00;;;;;;4033032;29;20044;-56
2022/11/08 12:28:16;;;;;;;1.40;0.30;;;26.10;56.00;;;;;;4036751;29;20052;-48
2022/11/08 12:30:42;;;;;;;2.30;0.47;;;26.10;56.00;;;;;;4034387;29;20091;-57
2022/11/08 12:33:42;;;;;;;0.98;0.40;;;26.10;56.00;;;;;;4034951;29;20075;-55
2022/11/08 12:36:23;;;;;;;3.88;0.52;;;26.10;55.90;;;;;;4032599;29;20091;-59
2022/11/08 12:39:19;;;;;;;0.85;0.52;;;26.10;55.90;;;;;;4025876;29;20064;-57
2022/11/08 12:41:47;;;;;;;1.88;0.50;;;26.00;55.80;;;;;;4030342;29;20080;-53
2022/11/08 12:44:34;;;;;;;0.98;0.40;;;26.10;55.90;;;;;;4031852;29;20041;-51
2022/11/08 12:47:12;;;;;;;1.73;0.73;;;26.10;55.90;;;;;;4028007;29;20531;-53
2022/11/08 12:49:53;;;;;;;2.95;0.52;;;26.00;55.80;;;;;;4030914;29;20094;-52
2022/11/08 12:52:20;;;;;;;2.53;0.73;;;26.00;56.00;;;;;;4030963;29;20040;-56
2022/11/08 12:54:52;;;;;;;1.70;0.57;;;26.00;56.70;;;;;;4033601;29;20519;-58
2022/11/08 12:57:26;;;;;;;1.67;0.40;;;26.00;56.00;;;;;;4028580;29;20047;-58
2022/11/08 12:59:57;;;;;;;1.33;0.50;;;26.00;56.00;;;;;;4035824;29;20148;-50
2022/11/08 13:02:27;;;;;;;2.78;0.60;;;26.00;56.00;;;;;;4035973;29;20108;-55
2022/11/08 13:05:35;;;;;;;2.90;0.47;;;26.00;56.20;;;;;;4034111;29;20049;-49
2022/11/08 13:08:23;;;;;;;0.55;0.43;;;26.00;56.00;;;;;;4028839;29;20076;-53
2022/11/08 13:10:48;;;;;;;1.92;0.35;;;26.00;56.00;;;;;;4030240;29;20484;-57
2022/11/08 13:13:23;;;;;;;4.07;0.65;;;26.00;56.00;;;;;;4037238;29;20603;-51
2022/11/08 13:16:29;;;;;;;3.90;0.95;;;26.00;56.00;;;;;;4033636;29;20041;-56
2022/11/08 13:18:57;;;;;;;0.93;0.50;;;25.90;56.10;;;;;;4035398;29;20083;-57
2022/11/08 13:21:29;;;;;;;1.98;0.50;;;25.90;56.20;;;;;;4042769;29;20045;-56